Canutillo, Texas
Current Conditions -  °F | °C
As of 2:58 AM on Friday 24 Oct 2014 (Local Time) from KBIF Reporting Station
Clear Clear  
Wind Chill: 55°   Ceiling: Unl
Heat Index: 55°   Visibility: 9mi
Dew Point: 53°   Wind: 1mph
Humidity: 92%   Direction: 10°N
Pressure: 30.19"   Gusts: NA
Location:  31.91°N, 106.6°W
Report Text: KBIF 240858Z AUTO 01001KT 9SM CLR 13/12 A3019 RMK AO2 SLP174 T01280115 51005 $
Loading
Personal Weather Stations






























Interactive Weather Map
Tropical Storm Tracking
New forecast layout! Learn more

10-Day Weather Forecast

Advertisements
Track Severe Weather on mobile